createdAt,value
2023-05-21T00:00:56.185Z,100695.78
2023-05-21T00:04:59.108Z,100690.41
2023-05-21T00:09:02.460Z,100674.97
2023-05-21T00:13:05.822Z,100683.94
2023-05-21T00:17:10.480Z,100686.13
2023-05-21T00:21:14.233Z,100688.69
2023-05-21T00:25:18.542Z,100681.53
2023-05-21T00:29:21.723Z,100689.22
2023-05-21T00:33:26.724Z,100677.44
2023-05-21T00:37:34.947Z,100684.06
2023-05-21T00:41:38.486Z,100686.91
2023-05-21T00:45:44.491Z,100684.69
2023-05-21T00:49:49.073Z,100683.44
2023-05-21T00:53:53.704Z,100678.47
2023-05-21T00:57:56.910Z,100687.34
2023-05-21T01:02:04.302Z,100683.59
2023-05-21T01:06:09.903Z,100687.16
2023-05-21T01:10:13.295Z,100685.69
2023-05-21T01:14:17.714Z,100686.97
2023-05-21T01:18:21.485Z,100684.47
2023-05-21T01:22:26.267Z,100687.41
2023-05-21T01:26:30.756Z,100670.94
2023-05-21T01:30:34.206Z,100670.94
2023-05-21T01:34:42.016Z,100675.00
2023-05-21T01:38:50.197Z,100673.94
2023-05-21T01:42:54.883Z,100672.25
2023-05-21T01:46:58.240Z,100670.56
2023-05-21T01:51:03.005Z,100676.97
2023-05-21T01:55:06.909Z,100672.69
2023-05-21T01:59:12.184Z,100671.47
2023-05-21T02:03:16.601Z,100669.78
2023-05-21T02:07:19.987Z,100666.00
2023-05-21T02:11:23.591Z,100661.91
2023-05-21T02:15:28.639Z,100665.44
2023-05-21T02:19:31.758Z,100656.34
2023-05-21T02:23:35.347Z,100656.53
2023-05-21T02:27:39.293Z,100648.09
2023-05-21T02:31:43.687Z,100635.19
2023-05-21T02:35:46.976Z,100628.38
2023-05-21T02:39:50.176Z,100620.50
2023-05-21T02:43:54.629Z,100621.31
2023-05-21T02:47:59.512Z,100616.19
2023-05-21T02:52:04.123Z,100610.03
2023-05-21T02:56:08.088Z,100611.09
2023-05-21T03:00:11.949Z,100610.06
2023-05-21T03:04:18.650Z,100607.66
2023-05-21T03:08:21.830Z,100610.66
2023-05-21T03:12:24.933Z,100609.00
2023-05-21T03:16:28.852Z,100604.31
2023-05-21T03:20:33.579Z,100597.94
2023-05-21T03:24:38.382Z,100584.03
2023-05-21T03:28:43.022Z,100594.19
2023-05-21T03:32:46.476Z,100595.25
2023-05-21T03:36:51.503Z,100602.47
2023-05-21T03:40:55.435Z,100589.63
2023-05-21T03:44:59.396Z,100597.22
2023-05-21T03:49:25.688Z,100591.75
2023-05-21T03:53:35.292Z,100588.81
2023-05-21T03:57:38.575Z,100606.94
2023-05-21T04:01:42.946Z,100606.94
2023-05-21T04:05:50.452Z,100606.94
2023-05-21T04:09:55.119Z,100609.47
2023-05-21T04:13:58.233Z,100611.09
2023-05-21T04:18:01.237Z,100630.16
2023-05-21T04:22:04.331Z,100631.56
2023-05-21T04:26:09.281Z,100624.84
2023-05-21T04:30:16.070Z,100622.25
2023-05-21T04:34:21.716Z,100625.78
2023-05-21T04:38:26.090Z,100621.91
2023-05-21T04:42:30.612Z,100624.91
2023-05-21T04:46:34.983Z,100619.94
2023-05-21T04:50:39.244Z,100609.13
2023-05-21T04:54:42.412Z,100607.38
2023-05-21T04:58:48.083Z,100609.44
2023-05-21T05:02:51.194Z,100612.72
2023-05-21T05:06:54.352Z,100621.88
2023-05-21T05:10:57.624Z,100617.22
2023-05-21T05:15:02.030Z,100609.59
2023-05-21T05:19:05.651Z,100604.53
2023-05-21T05:23:08.966Z,100602.72
2023-05-21T05:27:12.140Z,100593.25
2023-05-21T05:31:16.957Z,100593.16
2023-05-21T05:35:20.554Z,100595.25
2023-05-21T05:39:23.565Z,100584.38
2023-05-21T05:43:27.575Z,100590.81
2023-05-21T05:47:33.614Z,100584.38
2023-05-21T05:51:37.598Z,100579.28
2023-05-21T05:55:40.698Z,100577.41
2023-05-21T05:59:43.818Z,100584.75
2023-05-21T06:03:49.733Z,100570.47
2023-05-21T06:07:54.374Z,100573.69
2023-05-21T06:11:57.326Z,100580.00
2023-05-21T06:16:00.756Z,100586.22
2023-05-21T06:20:06.242Z,100607.03
2023-05-21T06:24:09.397Z,100606.97
2023-05-21T06:28:12.795Z,100602.66
2023-05-21T06:32:16.097Z,100592.72
2023-05-21T06:36:22.118Z,100598.09
2023-05-21T06:40:25.576Z,100590.34
2023-05-21T06:44:32.268Z,100587.56
2023-05-21T06:48:46.794Z,100600.75
2023-05-21T06:52:51.984Z,100600.75
2023-05-21T06:56:56.457Z,100596.00
2023-05-21T07:01:01.036Z,100610.41
2023-05-21T07:05:04.591Z,100605.13
2023-05-21T07:09:09.448Z,100608.53
2023-05-21T07:13:14.248Z,100600.78
2023-05-21T07:17:17.193Z,100601.19
2023-05-21T07:21:20.475Z,100600.38
2023-05-21T07:25:26.864Z,100601.75
2023-05-21T07:29:29.845Z,100595.47
2023-05-21T07:33:32.861Z,100608.88
2023-05-21T07:37:35.968Z,100592.88
2023-05-21T07:41:41.914Z,100612.28
2023-05-21T07:45:46.765Z,100597.56
2023-05-21T07:49:49.979Z,100610.72
2023-05-21T07:53:55.261Z,100604.03
2023-05-21T07:58:09.198Z,100596.00
2023-05-21T08:02:12.495Z,100590.28
2023-05-21T08:06:15.807Z,100592.63
2023-05-21T08:10:19.493Z,100590.09
2023-05-21T08:14:26.170Z,100589.91
2023-05-21T08:18:30.166Z,100588.19
2023-05-21T08:22:33.440Z,100593.25
2023-05-21T08:26:36.602Z,100594.91
2023-05-21T08:30:41.455Z,100592.97
2023-05-21T08:34:44.737Z,100585.59
2023-05-21T08:39:06.133Z,100584.50
2023-05-21T08:43:13.936Z,100598.94
2023-05-21T08:47:25.069Z,100583.16
2023-05-21T08:51:28.429Z,100589.03
2023-05-21T08:55:32.660Z,100600.75
2023-05-21T08:59:37.396Z,100588.88
2023-05-21T09:03:51.983Z,100593.81
2023-05-21T09:08:01.908Z,100592.66
2023-05-21T09:12:14.503Z,100595.16
2023-05-21T09:16:18.111Z,100596.53
2023-05-21T09:20:26.645Z,100588.13
2023-05-21T09:24:36.208Z,100590.59
2023-05-21T09:28:43.711Z,100586.03
2023-05-21T09:32:47.424Z,100584.44
2023-05-21T09:36:53.702Z,100578.59
2023-05-21T09:40:59.026Z,100598.81
2023-05-21T09:45:04.760Z,100586.34
2023-05-21T09:49:08.857Z,100586.34
2023-05-21T09:53:14.758Z,100585.03
2023-05-21T09:57:17.945Z,100582.06
2023-05-21T10:01:23.488Z,100584.31
2023-05-21T10:05:28.617Z,100569.41
2023-05-21T10:09:33.311Z,100567.84
2023-05-21T10:13:38.971Z,100561.19
2023-05-21T10:17:42.362Z,100561.75
2023-05-21T10:21:47.066Z,100552.00
2023-05-21T10:25:52.267Z,100549.59
2023-05-21T10:29:55.464Z,100556.56
2023-05-21T10:33:58.811Z,100556.41
2023-05-21T10:38:03.068Z,100536.41
2023-05-21T10:42:13.798Z,100531.97
2023-05-21T10:46:33.851Z,100537.56
2023-05-21T10:50:47.123Z,100532.13
2023-05-21T10:55:13.544Z,100530.41
2023-05-21T10:59:23.428Z,100520.47
2023-05-21T11:03:28.846Z,100521.97
2023-05-21T11:07:51.244Z,100526.09
2023-05-21T11:11:59.143Z,100524.03
2023-05-21T11:16:15.365Z,100521.34
2023-05-21T11:20:21.882Z,100522.28
2023-05-21T11:24:25.777Z,100502.00
2023-05-21T11:28:34.251Z,100498.91
2023-05-21T11:33:02.051Z,100499.00
2023-05-21T11:37:26.843Z,100485.38
2023-05-21T11:41:30.122Z,100486.16
2023-05-21T11:45:34.069Z,100485.31
2023-05-21T11:49:39.507Z,100489.84
2023-05-21T11:53:44.359Z,100483.09
2023-05-21T11:57:48.372Z,100477.03
2023-05-21T12:01:51.558Z,100479.47
2023-05-21T12:05:58.273Z,100482.03
2023-05-21T12:10:01.720Z,100476.00
2023-05-21T12:14:07.953Z,100473.66
2023-05-21T12:18:11.788Z,100464.41
2023-05-21T12:22:20.536Z,100468.47
2023-05-21T12:31:11.979Z,100469.31
2023-05-21T12:35:27.637Z,100473.91
2023-05-21T12:39:32.717Z,100470.78
2023-05-21T12:43:36.093Z,100469.97
2023-05-21T12:47:39.571Z,100457.44
2023-05-21T12:51:42.992Z,100483.13
2023-05-21T12:55:47.884Z,100479.97
2023-05-21T13:00:05.549Z,100467.63
2023-05-21T13:04:09.234Z,100478.13
2023-05-21T13:08:23.419Z,100477.94
2023-05-21T13:12:37.158Z,100475.72
2023-05-21T13:16:40.738Z,100464.38
2023-05-21T13:20:46.517Z,100468.94
2023-05-21T13:24:49.798Z,100461.06
2023-05-21T13:28:55.319Z,100457.59
2023-05-21T13:32:58.692Z,100469.22
2023-05-21T13:37:02.310Z,100467.72
2023-05-21T13:41:05.997Z,100469.84
2023-05-21T13:45:11.810Z,100461.19
2023-05-21T13:49:15.016Z,100470.09
2023-05-21T13:53:18.515Z,100467.66
2023-05-21T13:57:22.298Z,100467.09
2023-05-21T14:01:27.813Z,100462.44
2023-05-21T14:05:30.886Z,100463.59
2023-05-21T14:09:34.332Z,100447.97
2023-05-21T14:13:37.629Z,100448.19
2023-05-21T14:17:42.616Z,100445.88
2023-05-21T14:21:46.298Z,100445.84
2023-05-21T14:25:49.460Z,100442.47
2023-05-21T14:29:52.574Z,100435.59
2023-05-21T14:33:57.241Z,100433.38
2023-05-21T14:38:00.335Z,100428.09
2023-05-21T14:42:04.291Z,100418.38
2023-05-21T14:46:07.490Z,100418.63
2023-05-21T14:50:12.487Z,100416.25
2023-05-21T14:54:16.062Z,100419.69
2023-05-21T14:58:21.440Z,100417.22
2023-05-21T15:02:24.919Z,100408.66
2023-05-21T15:06:32.380Z,100416.69
2023-05-21T15:10:35.536Z,100411.53
2023-05-21T15:14:38.883Z,100409.47
2023-05-21T15:18:42.569Z,100399.03
2023-05-21T15:22:47.255Z,100405.78
2023-05-21T15:26:50.696Z,100398.72
2023-05-21T15:30:54.193Z,100401.34
2023-05-21T15:34:57.667Z,100384.44
2023-05-21T15:39:03.907Z,100397.03
2023-05-21T15:43:07.771Z,100381.94
2023-05-21T15:47:11.240Z,100389.69
2023-05-21T15:51:14.255Z,100396.34
2023-05-21T15:55:19.688Z,100391.00
2023-05-21T15:59:25.252Z,100385.63
2023-05-21T16:03:28.437Z,100394.06
2023-05-21T16:07:31.911Z,100390.69
2023-05-21T16:11:36.864Z,100395.63
2023-05-21T16:15:40.354Z,100387.66
2023-05-21T16:19:43.854Z,100394.38
2023-05-21T16:23:47.065Z,100388.56
2023-05-21T16:27:51.579Z,100395.84
2023-05-21T16:31:55.387Z,100389.72
2023-05-21T16:35:59.061Z,100370.41
2023-05-21T16:40:02.682Z,100380.94
2023-05-21T16:44:08.740Z,100384.59
2023-05-21T16:48:13.009Z,100379.28
2023-05-21T16:52:16.305Z,100381.03
2023-05-21T16:56:19.840Z,100373.53
2023-05-21T17:00:24.872Z,100378.28
2023-05-21T17:04:27.907Z,100384.84
2023-05-21T17:08:31.332Z,100379.97
2023-05-21T17:12:34.798Z,100376.56
2023-05-21T17:16:42.888Z,100379.31
2023-05-21T17:20:46.345Z,100398.00
2023-05-21T17:24:49.473Z,100395.53
2023-05-21T17:28:52.587Z,100394.22
2023-05-21T17:32:58.453Z,100384.22
2023-05-21T17:37:02.157Z,100385.28
2023-05-21T17:41:05.664Z,100388.72
2023-05-21T17:45:09.044Z,100394.00
2023-05-21T17:49:13.909Z,100390.84
2023-05-21T17:53:17.774Z,100403.97
2023-05-21T17:57:20.782Z,100397.78
2023-05-21T18:01:25.505Z,100397.13
2023-05-21T18:05:30.226Z,100398.00
2023-05-21T18:09:33.271Z,100398.28
2023-05-21T18:13:36.416Z,100394.69
2023-05-21T18:17:39.605Z,100408.59
2023-05-21T18:21:43.993Z,100404.75
2023-05-21T18:25:47.040Z,100401.59
2023-05-21T18:29:50.243Z,100403.47
2023-05-21T18:33:53.669Z,100405.53
2023-05-21T18:37:58.974Z,100392.41
2023-05-21T18:42:12.984Z,100394.25
2023-05-21T18:46:17.466Z,100388.97
2023-05-21T18:50:20.738Z,100389.22
2023-05-21T18:54:25.396Z,100396.94
2023-05-21T18:58:30.510Z,100400.50
2023-05-21T19:02:34.176Z,100395.53
2023-05-21T19:06:38.148Z,100389.06
2023-05-21T19:10:42.657Z,100400.53
2023-05-21T19:14:46.537Z,100407.03
2023-05-21T19:18:49.763Z,100406.09
2023-05-21T19:22:53.366Z,100409.22
2023-05-21T19:26:57.955Z,100405.59
2023-05-21T19:31:01.828Z,100404.53
2023-05-21T19:35:05.790Z,100401.25
2023-05-21T19:39:09.126Z,100409.66
2023-05-21T19:43:15.297Z,100406.06
2023-05-21T19:47:18.532Z,100400.50
2023-05-21T19:51:21.581Z,100400.56
2023-05-21T19:55:25.110Z,100414.81
2023-05-21T19:59:29.890Z,100412.59
2023-05-21T20:03:36.081Z,100410.38
2023-05-21T20:07:40.061Z,100407.03
2023-05-21T20:11:43.332Z,100402.06
2023-05-21T20:15:48.077Z,100406.84
2023-05-21T20:19:51.617Z,100397.69
2023-05-21T20:23:55.916Z,100397.41
2023-05-21T20:28:01.271Z,100406.03
2023-05-21T20:32:06.165Z,100401.03
2023-05-21T20:36:09.578Z,100400.44
2023-05-21T20:40:14.793Z,100413.75
2023-05-21T20:44:18.593Z,100417.66
2023-05-21T20:48:23.656Z,100415.41
2023-05-21T20:52:27.465Z,100412.06
2023-05-21T20:56:41.413Z,100414.81
2023-05-21T21:00:47.208Z,100423.38
2023-05-21T21:04:51.879Z,100423.34
2023-05-21T21:08:56.102Z,100424.75
2023-05-21T21:12:59.462Z,100434.69
2023-05-21T21:17:02.674Z,100430.47
2023-05-21T21:21:07.070Z,100432.13
2023-05-21T21:25:10.713Z,100433.97
2023-05-21T21:29:13.692Z,100437.25
2023-05-21T21:33:17.955Z,100438.31
2023-05-21T21:37:22.963Z,100444.91
2023-05-21T21:41:26.552Z,100435.56
2023-05-21T21:45:29.771Z,100442.72
2023-05-21T21:49:33.355Z,100441.03
2023-05-21T21:53:37.824Z,100432.72
2023-05-21T21:57:40.864Z,100438.78
2023-05-21T22:01:44.111Z,100442.28
2023-05-21T22:05:47.641Z,100441.44
2023-05-21T22:09:52.209Z,100430.16
2023-05-21T22:13:56.389Z,100431.00
2023-05-21T22:18:00.950Z,100432.47
2023-05-21T22:22:05.361Z,100433.03
2023-05-21T22:26:10.688Z,100426.69
2023-05-21T22:30:14.385Z,100432.41
2023-05-21T22:34:18.659Z,100434.03
2023-05-21T22:38:22.128Z,100434.47
2023-05-21T22:42:26.931Z,100426.09
2023-05-21T22:46:30.245Z,100442.16
2023-05-21T22:50:33.395Z,100439.34
2023-05-21T22:54:37.427Z,100433.75
2023-05-21T22:58:42.128Z,100429.25
2023-05-21T23:02:47.089Z,100436.34
2023-05-21T23:06:50.673Z,100445.94
2023-05-21T23:10:54.090Z,100440.69
2023-05-21T23:14:58.556Z,100442.34
2023-05-21T23:19:02.873Z,100446.97
2023-05-21T23:23:06.147Z,100448.09
2023-05-21T23:27:09.219Z,100449.44
2023-05-21T23:31:14.047Z,100462.38
2023-05-21T23:35:17.688Z,100465.59
2023-05-21T23:39:21.227Z,100457.91
2023-05-21T23:43:24.376Z,100460.75
2023-05-21T23:47:28.661Z,100446.97
2023-05-21T23:51:31.716Z,100445.06
2023-05-21T23:55:34.845Z,100429.81
2023-05-21T23:59:38.145Z,100435.97
